createdAt,value
2017-11-30T00:01:12.907Z,18.37
2017-11-30T00:06:15.486Z,17.63
2017-11-30T00:11:18.828Z,31.30
2017-11-30T00:16:21.434Z,19.97
2017-11-30T00:21:23.997Z,19.90
2017-11-30T00:26:26.559Z,20.53
2017-11-30T00:31:29.105Z,22.83
2017-11-30T00:36:31.669Z,16.20
2017-11-30T00:41:34.224Z,17.30
2017-11-30T00:46:36.801Z,22.07
2017-11-30T00:51:39.365Z,18.70
2017-11-30T00:56:41.933Z,23.97
2017-11-30T01:01:44.525Z,19.07
2017-11-30T01:06:47.949Z,22.30
2017-11-30T01:11:50.490Z,22.20
2017-11-30T01:16:53.049Z,27.60
2017-11-30T01:21:55.590Z,15.50
2017-11-30T01:26:58.145Z,15.73
2017-11-30T01:32:00.721Z,14.60
2017-11-30T01:37:04.064Z,20.70
2017-11-30T01:42:06.600Z,17.07
2017-11-30T01:47:09.145Z,17.83
2017-11-30T01:52:11.685Z,21.57
2017-11-30T01:57:14.243Z,16.97
2017-11-30T02:02:17.571Z,17.50
2017-11-30T02:07:20.134Z,12.90
2017-11-30T02:12:22.670Z,14.27
2017-11-30T02:17:25.218Z,12.90
2017-11-30T02:22:27.770Z,13.60
2017-11-30T02:27:30.318Z,13.13
2017-11-30T02:32:32.872Z,11.80
2017-11-30T02:37:35.423Z,16.10
2017-11-30T02:42:37.953Z,13.90
2017-11-30T02:47:40.508Z,12.17
2017-11-30T02:52:43.058Z,12.03
2017-11-30T02:57:45.607Z,19.07
2017-11-30T03:02:48.167Z,14.90
2017-11-30T03:07:50.735Z,18.33
2017-11-30T03:12:53.335Z,19.30
2017-11-30T03:17:55.881Z,29.87
2017-11-30T03:22:58.449Z,23.47
2017-11-30T03:28:00.999Z,20.13
2017-11-30T03:33:03.570Z,21.50
2017-11-30T03:38:06.136Z,23.80
2017-11-30T03:43:09.445Z,19.40
2017-11-30T03:48:11.998Z,22.57
2017-11-30T03:53:14.587Z,32.03
2017-11-30T03:58:17.189Z,17.37
2017-11-30T04:03:19.740Z,17.67
2017-11-30T04:08:22.296Z,16.30
2017-11-30T04:13:24.843Z,19.60
2017-11-30T04:18:27.396Z,26.50
2017-11-30T04:23:29.975Z,24.07
2017-11-30T04:28:32.530Z,22.50
2017-11-30T04:33:35.084Z,18.30
2017-11-30T04:38:37.628Z,23.90
2017-11-30T04:43:40.180Z,21.70
2017-11-30T04:48:42.722Z,18.70
2017-11-30T04:53:45.282Z,15.80
2017-11-30T04:58:47.839Z,24.30
2017-11-30T05:03:50.389Z,21.57
2017-11-30T05:08:53.733Z,23.27
2017-11-30T05:13:56.320Z,22.40
2017-11-30T05:18:58.885Z,24.67
2017-11-30T05:24:01.463Z,25.87
2017-11-30T05:29:04.027Z,22.87
2017-11-30T05:34:06.616Z,24.53
2017-11-30T05:39:09.189Z,20.27
2017-11-30T05:44:11.774Z,21.87
2017-11-30T05:49:15.109Z,29.20
2017-11-30T05:54:17.689Z,24.57
2017-11-30T05:59:21.034Z,21.20
2017-11-30T06:04:23.637Z,21.43
2017-11-30T06:09:26.214Z,24.73
2017-11-30T06:14:28.862Z,23.43
2017-11-30T06:19:31.478Z,25.40
2017-11-30T06:24:34.064Z,20.93
2017-11-30T06:29:37.378Z,21.03
2017-11-30T06:34:39.970Z,29.50
2017-11-30T06:39:42.733Z,22.53
2017-11-30T06:44:45.393Z,18.87
2017-11-30T06:49:47.965Z,19.70
2017-11-30T06:54:50.561Z,27.43
2017-11-30T06:59:53.898Z,27.63
2017-11-30T07:04:56.463Z,24.20
2017-11-30T07:09:59.046Z,19.93
2017-11-30T07:15:01.622Z,18.43
2017-11-30T07:20:04.193Z,24.60
2017-11-30T07:25:06.765Z,22.40
2017-11-30T07:30:10.226Z,22.00
2017-11-30T07:35:12.758Z,23.80
2017-11-30T07:40:15.319Z,20.70
2017-11-30T07:45:17.953Z,20.80
2017-11-30T07:50:20.525Z,23.33
2017-11-30T07:55:23.882Z,20.83
2017-11-30T08:00:26.449Z,24.20
2017-11-30T08:05:28.987Z,20.10
2017-11-30T08:10:31.580Z,17.90
2017-11-30T08:15:34.129Z,17.20
2017-11-30T08:20:36.726Z,17.93
2017-11-30T08:25:39.277Z,29.13
2017-11-30T08:30:41.834Z,19.80
2017-11-30T08:35:44.394Z,21.97
2017-11-30T08:40:47.734Z,24.57
2017-11-30T08:45:50.291Z,22.47
2017-11-30T08:50:52.877Z,23.00
2017-11-30T08:55:55.458Z,21.10
2017-11-30T09:00:58.031Z,26.47
2017-11-30T09:06:00.595Z,27.80
2017-11-30T09:11:03.165Z,25.20
2017-11-30T09:16:06.268Z,33.37
2017-11-30T09:21:08.825Z,31.10
2017-11-30T09:26:11.382Z,31.23
2017-11-30T09:31:13.955Z,37.63
2017-11-30T09:36:16.518Z,29.90
2017-11-30T09:41:19.972Z,28.60
2017-11-30T09:46:22.565Z,31.63
2017-11-30T09:51:25.149Z,28.03
2017-11-30T09:56:27.719Z,45.13
2017-11-30T10:01:30.286Z,29.67
2017-11-30T10:06:33.611Z,35.00
2017-11-30T10:11:36.170Z,31.73
2017-11-30T10:16:38.732Z,30.43
2017-11-30T10:21:41.298Z,31.53
2017-11-30T10:26:43.881Z,31.47
2017-11-30T10:31:46.465Z,27.20
2017-11-30T10:36:49.799Z,30.47
2017-11-30T10:41:52.363Z,30.07
2017-11-30T10:46:54.919Z,35.33
2017-11-30T10:51:57.476Z,30.77
2017-11-30T10:57:00.049Z,24.93
2017-11-30T11:02:02.618Z,30.20
2017-11-30T11:07:05.180Z,29.00
2017-11-30T11:12:08.613Z,24.37
2017-11-30T11:17:11.193Z,26.73
2017-11-30T11:22:14.526Z,31.80
2017-11-30T11:27:17.105Z,28.23
2017-11-30T11:32:20.440Z,24.63
2017-11-30T11:37:23.022Z,31.00
2017-11-30T11:42:26.474Z,31.17
2017-11-30T11:47:29.831Z,24.47
2017-11-30T11:52:33.259Z,21.47
2017-11-30T11:57:35.809Z,21.10
2017-11-30T12:02:38.380Z,17.63
2017-11-30T12:07:40.944Z,21.70
2017-11-30T12:12:43.490Z,20.63
2017-11-30T12:17:46.070Z,21.03
2017-11-30T12:22:48.639Z,19.80
2017-11-30T12:27:51.220Z,13.43
2017-11-30T12:32:53.774Z,15.77
2017-11-30T12:37:56.353Z,28.87
2017-11-30T12:42:59.703Z,16.73
2017-11-30T12:48:06.253Z,12.90
2017-11-30T12:53:09.110Z,14.73
2017-11-30T13:03:19.346Z,12.10
2017-11-30T13:08:23.774Z,11.13
2017-11-30T13:13:26.330Z,11.77
2017-11-30T13:18:28.911Z,10.33
2017-11-30T13:23:31.485Z,10.70
2017-11-30T13:28:34.070Z,12.33
2017-11-30T13:33:36.617Z,7.10
2017-11-30T13:38:39.173Z,14.27
2017-11-30T13:43:41.783Z,11.17
2017-11-30T13:48:44.363Z,12.20
2017-11-30T13:53:46.929Z,9.13
2017-11-30T13:58:49.489Z,15.30
2017-11-30T14:03:52.070Z,10.00
2017-11-30T14:08:55.368Z,7.20
2017-11-30T14:13:58.706Z,13.10
2017-11-30T14:19:01.255Z,10.03
2017-11-30T14:24:03.831Z,7.20
2017-11-30T14:29:06.391Z,8.70
2017-11-30T14:34:09.734Z,7.13
2017-11-30T14:39:12.284Z,7.63
2017-11-30T14:44:14.869Z,11.10
2017-11-30T14:49:17.416Z,10.60
2017-11-30T14:54:19.997Z,8.23
2017-11-30T14:59:23.508Z,7.20
2017-11-30T15:04:26.089Z,10.20
2017-11-30T15:09:29.426Z,9.90
2017-11-30T15:14:32.730Z,9.30
2017-11-30T15:19:35.292Z,23.47
2017-11-30T15:24:37.848Z,28.53
2017-11-30T15:29:40.388Z,22.10
2017-11-30T15:34:42.957Z,29.97
2017-11-30T15:39:45.544Z,9.27
2017-11-30T15:44:48.104Z,8.50
2017-11-30T15:49:50.664Z,12.00
2017-11-30T15:54:53.226Z,12.70
2017-11-30T15:59:55.842Z,11.97
2017-11-30T16:04:58.396Z,13.40
2017-11-30T16:10:00.956Z,11.60
2017-11-30T16:15:03.540Z,12.00
2017-11-30T16:20:06.114Z,13.97
2017-11-30T16:25:08.675Z,22.13
2017-11-30T16:30:11.240Z,19.17
2017-11-30T16:35:14.579Z,20.77
2017-11-30T16:40:17.156Z,17.70
2017-11-30T16:45:19.748Z,13.50
2017-11-30T16:50:22.377Z,14.90
2017-11-30T16:55:24.946Z,15.43
2017-11-30T17:00:27.511Z,17.80
2017-11-30T17:05:30.074Z,15.40
2017-11-30T17:10:32.654Z,18.27
2017-11-30T17:15:35.201Z,16.33
2017-11-30T17:20:37.762Z,14.87
2017-11-30T17:25:40.316Z,23.33
2017-11-30T17:30:42.866Z,17.57
2017-11-30T17:35:45.508Z,14.30
2017-11-30T17:40:48.068Z,16.57
2017-11-30T17:45:50.625Z,20.10
2017-11-30T17:50:53.182Z,19.33
2017-11-30T17:55:56.513Z,18.90
2017-11-30T18:00:59.041Z,20.67
2017-11-30T18:06:01.599Z,15.37
2017-11-30T18:11:04.917Z,31.13
2017-11-30T18:16:07.543Z,21.07
2017-11-30T18:21:10.110Z,25.33
2017-11-30T18:26:12.661Z,28.70
2017-11-30T18:31:15.206Z,26.97
2017-11-30T18:36:17.760Z,24.33
2017-11-30T18:41:20.333Z,22.87
2017-11-30T18:46:22.895Z,28.43
2017-11-30T18:51:25.437Z,28.10
2017-11-30T18:56:28.013Z,24.00
2017-11-30T19:01:30.552Z,26.83
2017-11-30T19:06:33.500Z,28.17
2017-11-30T19:11:37.270Z,22.37
2017-11-30T19:16:40.337Z,25.33
2017-11-30T19:21:45.682Z,35.53
2017-11-30T19:37:06.546Z,32.90
2017-11-30T19:47:19.109Z,31.33
2017-11-30T19:52:21.754Z,35.00
2017-11-30T19:57:24.358Z,33.23
2017-11-30T20:02:26.969Z,55.20
2017-11-30T20:07:29.607Z,41.37
2017-11-30T20:12:32.175Z,44.17
2017-11-30T20:17:34.738Z,32.77
2017-11-30T20:22:37.317Z,26.90
2017-11-30T20:27:39.906Z,34.57
2017-11-30T20:32:42.700Z,46.90
2017-11-30T20:37:45.248Z,38.97
2017-11-30T20:42:47.836Z,26.83
2017-11-30T20:47:50.395Z,27.83
2017-11-30T20:52:52.950Z,23.90
2017-11-30T20:57:55.515Z,36.37
2017-11-30T21:02:58.097Z,35.00
2017-11-30T21:08:00.708Z,31.30
2017-11-30T21:13:03.266Z,31.23
2017-11-30T21:18:05.837Z,29.93
2017-11-30T21:23:08.395Z,31.70
2017-11-30T21:28:10.963Z,25.90
2017-11-30T21:33:14.514Z,25.80
2017-11-30T21:38:17.077Z,30.77
2017-11-30T21:43:19.643Z,26.30
2017-11-30T21:48:22.186Z,25.63
2017-11-30T21:53:24.734Z,28.63
2017-11-30T21:58:27.290Z,36.97
2017-11-30T22:03:29.864Z,27.67
2017-11-30T22:08:32.436Z,30.53
2017-11-30T22:13:34.979Z,30.50
2017-11-30T22:18:38.303Z,33.60
2017-11-30T22:23:40.855Z,32.80
2017-11-30T22:28:43.391Z,31.47
2017-11-30T22:33:46.713Z,26.80
2017-11-30T22:38:49.261Z,27.27
2017-11-30T22:43:51.823Z,27.43
2017-11-30T22:48:54.394Z,23.70
2017-11-30T22:53:56.951Z,30.73
2017-11-30T22:58:59.512Z,38.43
2017-11-30T23:04:02.074Z,29.10
2017-11-30T23:09:04.630Z,34.73
2017-11-30T23:14:07.185Z,33.73
2017-11-30T23:19:09.763Z,29.30
2017-11-30T23:24:12.341Z,36.53
2017-11-30T23:29:14.937Z,24.73
2017-11-30T23:34:17.730Z,30.03
2017-11-30T23:39:20.313Z,27.30
2017-11-30T23:44:22.883Z,27.77
2017-11-30T23:49:26.230Z,22.60
2017-11-30T23:54:28.786Z,24.03
2017-11-30T23:59:31.355Z,34.93
